createdAt,value
2022-10-21T00:00:26.184Z,0.20
2022-10-21T00:01:27.939Z,0.38
2022-10-21T00:02:29.644Z,0.20
2022-10-21T00:03:31.653Z,0.30
2022-10-21T00:04:33.520Z,0.10
2022-10-21T00:05:35.361Z,0.22
2022-10-21T00:06:37.114Z,0.10
2022-10-21T00:07:38.852Z,0.20
2022-10-21T00:08:40.891Z,0.10
2022-10-21T00:09:42.751Z,0.00
2022-10-21T00:10:44.526Z,0.10
2022-10-21T00:11:46.229Z,0.10
2022-10-21T00:12:48.041Z,0.10
2022-10-21T00:13:49.755Z,0.20
2022-10-21T00:14:53.695Z,0.20
2022-10-21T00:16:09.919Z,0.10
2022-10-21T00:17:11.608Z,0.35
2022-10-21T00:18:13.304Z,0.10
2022-10-21T00:19:15.251Z,0.20
2022-10-21T00:20:17.094Z,0.13
2022-10-21T00:21:21.863Z,0.30
2022-10-21T00:22:23.562Z,0.10
2022-10-21T00:23:25.983Z,0.10
2022-10-21T00:24:27.703Z,0.20
2022-10-21T00:25:29.491Z,0.10
2022-10-21T00:26:33.716Z,0.10
2022-10-21T00:27:38.442Z,0.10
2022-10-21T00:28:41.105Z,0.20
2022-10-21T00:29:42.955Z,0.10
2022-10-21T00:30:45.614Z,0.05
2022-10-21T00:31:47.338Z,0.22
2022-10-21T00:32:49.102Z,0.13
2022-10-21T00:33:51.675Z,0.20
2022-10-21T00:34:53.470Z,0.10
2022-10-21T00:36:03.020Z,0.22
2022-10-21T00:37:05.107Z,0.10
2022-10-21T00:38:07.321Z,0.20
2022-10-21T00:39:09.001Z,0.10
2022-10-21T00:40:10.922Z,0.10
2022-10-21T00:41:14.613Z,0.20
2022-10-21T00:42:20.298Z,0.00
2022-10-21T00:43:22.327Z,0.25
2022-10-21T00:44:26.684Z,0.20
2022-10-21T00:45:29.833Z,0.20
2022-10-21T00:46:43.559Z,0.20
2022-10-21T00:47:53.969Z,0.28
2022-10-21T00:48:59.491Z,0.20
2022-10-21T00:50:03.934Z,0.20
2022-10-21T00:51:09.684Z,0.20
2022-10-21T00:52:22.836Z,0.10
2022-10-21T00:53:25.151Z,0.20
2022-10-21T00:54:28.887Z,0.10
2022-10-21T00:55:35.180Z,0.30
2022-10-21T00:56:38.013Z,0.20
2022-10-21T00:57:40.546Z,0.20
2022-10-21T00:58:42.594Z,0.20
2022-10-21T00:59:50.750Z,0.20
2022-10-21T01:00:56.231Z,0.10
2022-10-21T01:01:58.019Z,0.10
2022-10-21T01:03:00.145Z,0.10
2022-10-21T01:04:03.730Z,0.20
2022-10-21T01:05:06.393Z,0.10
2022-10-21T01:06:11.744Z,0.10
2022-10-21T01:07:13.525Z,0.20
2022-10-21T01:08:15.301Z,0.28
2022-10-21T01:09:18.323Z,0.20
2022-10-21T01:10:20.200Z,0.30
2022-10-21T01:11:24.498Z,0.20
2022-10-21T01:12:32.907Z,0.10
2022-10-21T01:13:55.910Z,0.25
2022-10-21T01:15:06.600Z,0.20
2022-10-21T01:16:17.752Z,0.10
2022-10-21T01:17:49.021Z,0.20
2022-10-21T01:19:02.854Z,0.20
2022-10-21T01:20:20.204Z,0.20
2022-10-21T01:21:27.747Z,0.10
2022-10-21T01:22:29.444Z,0.20
2022-10-21T01:23:49.935Z,0.22
2022-10-21T01:25:23.660Z,0.20
2022-10-21T01:26:49.089Z,0.30
2022-10-21T01:28:14.459Z,0.22
2022-10-21T01:29:41.958Z,0.20
2022-10-21T01:30:50.159Z,0.30
2022-10-21T01:32:00.663Z,0.20
2022-10-21T01:33:30.076Z,0.17
2022-10-21T01:34:43.087Z,0.20
2022-10-21T01:35:53.819Z,0.20
2022-10-21T01:37:05.352Z,0.10
2022-10-21T01:38:09.436Z,0.20
2022-10-21T01:39:20.677Z,0.10
2022-10-21T01:40:46.104Z,0.10
2022-10-21T01:41:57.259Z,0.20
2022-10-21T01:43:08.392Z,0.30
2022-10-21T01:44:36.288Z,0.30
2022-10-21T01:45:46.954Z,0.15
2022-10-21T01:47:01.319Z,0.30
2022-10-21T01:48:08.213Z,0.10
2022-10-21T01:49:32.579Z,0.20
2022-10-21T01:50:41.695Z,0.30
2022-10-21T01:51:43.943Z,0.20
2022-10-21T01:52:50.215Z,0.45
2022-10-21T01:53:57.767Z,0.13
2022-10-21T01:55:05.801Z,0.20
2022-10-21T01:56:09.877Z,0.13
2022-10-21T01:57:16.571Z,0.20
2022-10-21T01:58:22.468Z,0.20
2022-10-21T01:59:27.129Z,0.20
2022-10-21T02:00:29.783Z,0.10
2022-10-21T02:01:34.034Z,0.30
2022-10-21T02:02:40.658Z,0.10
2022-10-21T02:03:45.881Z,0.22
2022-10-21T02:04:51.526Z,0.20
2022-10-21T02:05:53.456Z,0.40
2022-10-21T02:06:55.223Z,0.20
2022-10-21T02:07:57.089Z,0.10
2022-10-21T02:08:59.069Z,0.28
2022-10-21T02:10:01.249Z,0.20
2022-10-21T02:11:07.116Z,0.20
2022-10-21T02:12:10.604Z,0.20
2022-10-21T02:13:16.260Z,0.30
2022-10-21T02:14:41.933Z,0.10
2022-10-21T02:15:44.389Z,0.40
2022-10-21T02:16:48.511Z,0.25
2022-10-21T02:17:57.746Z,0.20
2022-10-21T02:19:00.242Z,0.10
2022-10-21T02:20:06.503Z,0.10
2022-10-21T02:21:16.118Z,0.30
2022-10-21T02:22:21.982Z,0.20
2022-10-21T02:23:35.913Z,0.15
2022-10-21T02:24:51.310Z,0.20
2022-10-21T02:25:53.485Z,0.30
2022-10-21T02:26:55.422Z,0.63
2022-10-21T02:27:57.445Z,0.30
2022-10-21T02:28:59.695Z,0.20
2022-10-21T02:30:02.163Z,0.20
2022-10-21T02:31:22.143Z,0.20
2022-10-21T02:32:55.812Z,0.20
2022-10-21T02:34:30.219Z,0.10
2022-10-21T02:35:54.140Z,0.30
2022-10-21T02:37:07.937Z,0.20
2022-10-21T02:38:32.784Z,0.20
2022-10-21T02:39:40.915Z,0.20
2022-10-21T02:40:48.129Z,0.30
2022-10-21T02:41:52.913Z,0.10
2022-10-21T02:42:59.172Z,0.20
2022-10-21T02:44:03.479Z,0.22
2022-10-21T02:45:06.639Z,0.20
2022-10-21T02:46:13.952Z,0.20
2022-10-21T02:47:16.688Z,0.10
2022-10-21T02:48:18.448Z,0.10
2022-10-21T02:49:20.259Z,0.28
2022-10-21T02:50:21.988Z,0.20
2022-10-21T02:51:23.761Z,0.20
2022-10-21T02:52:25.654Z,0.20
2022-10-21T02:53:27.512Z,0.15
2022-10-21T02:54:29.260Z,0.20
2022-10-21T02:55:31.113Z,0.10
2022-10-21T02:56:32.970Z,0.20
2022-10-21T02:57:34.834Z,0.20
2022-10-21T02:58:37.383Z,0.20
2022-10-21T02:59:39.101Z,0.30
2022-10-21T03:00:40.831Z,0.20
2022-10-21T03:01:42.631Z,0.20
2022-10-21T03:02:44.374Z,0.30
2022-10-21T03:03:46.857Z,0.30
2022-10-21T03:04:48.615Z,0.17
2022-10-21T03:05:50.527Z,0.10
2022-10-21T03:06:52.408Z,0.20
2022-10-21T03:07:54.271Z,0.20
2022-10-21T03:08:56.176Z,0.20
2022-10-21T03:09:57.934Z,0.20
2022-10-21T03:10:59.701Z,0.20
2022-10-21T03:12:01.488Z,0.10
2022-10-21T03:13:04.025Z,0.10
2022-10-21T03:14:05.759Z,0.10
2022-10-21T03:15:08.142Z,0.20
2022-10-21T03:16:09.906Z,0.20
2022-10-21T03:17:11.661Z,0.15
2022-10-21T03:18:13.490Z,0.20
2022-10-21T03:19:15.208Z,0.20
2022-10-21T03:20:17.004Z,0.20
2022-10-21T03:21:18.851Z,0.20
2022-10-21T03:22:20.587Z,0.20
2022-10-21T03:23:22.309Z,0.30
2022-10-21T03:24:28.707Z,0.10
2022-10-21T03:25:35.298Z,0.20
2022-10-21T03:26:37.712Z,0.40
2022-10-21T03:27:39.564Z,0.08
2022-10-21T03:28:41.522Z,0.20
2022-10-21T03:29:43.245Z,0.20
2022-10-21T03:30:45.029Z,0.40
2022-10-21T03:31:46.806Z,0.20
2022-10-21T03:32:48.681Z,0.30
2022-10-21T03:33:50.378Z,0.20
2022-10-21T03:34:52.165Z,0.28
2022-10-21T03:35:54.295Z,0.20
2022-10-21T03:36:56.077Z,0.20
2022-10-21T03:39:04.557Z,0.20
2022-10-21T03:40:09.912Z,0.10
2022-10-21T03:41:14.110Z,0.17
2022-10-21T03:42:16.089Z,0.25
2022-10-21T03:43:17.987Z,0.35
2022-10-21T03:44:19.786Z,0.22
2022-10-21T03:45:21.484Z,0.20
2022-10-21T03:46:23.327Z,0.10
2022-10-21T03:47:25.279Z,0.22
2022-10-21T03:48:27.117Z,0.20
2022-10-21T03:49:28.900Z,0.20
2022-10-21T03:50:30.692Z,0.10
2022-10-21T03:51:32.717Z,0.30
2022-10-21T03:52:34.461Z,0.20
2022-10-21T03:53:43.278Z,0.20
2022-10-21T03:54:45.545Z,0.20
2022-10-21T03:55:47.324Z,0.10
2022-10-21T03:56:49.327Z,0.30
2022-10-21T03:57:52.454Z,0.20
2022-10-21T03:58:58.502Z,0.20
2022-10-21T04:00:00.775Z,0.20
2022-10-21T04:01:02.616Z,0.30
2022-10-21T04:02:04.424Z,0.25
2022-10-21T04:03:06.545Z,0.17
2022-10-21T04:04:08.511Z,0.40
2022-10-21T04:05:11.456Z,0.20
2022-10-21T04:06:13.258Z,0.10
2022-10-21T04:07:15.081Z,0.10
2022-10-21T04:08:16.912Z,0.35
2022-10-21T04:09:18.748Z,0.20
2022-10-21T04:10:20.855Z,0.35
2022-10-21T04:11:22.586Z,0.20
2022-10-21T04:12:24.367Z,0.22
2022-10-21T04:13:26.285Z,0.28
2022-10-21T04:14:28.096Z,0.20
2022-10-21T04:15:29.918Z,0.20
2022-10-21T04:16:33.510Z,0.17
2022-10-21T04:17:35.954Z,0.30
2022-10-21T04:18:37.677Z,0.20
2022-10-21T04:19:40.001Z,0.20
2022-10-21T04:20:41.823Z,0.30
2022-10-21T04:21:44.126Z,0.30
2022-10-21T04:22:45.924Z,0.32
2022-10-21T04:23:47.765Z,0.20
2022-10-21T04:24:49.550Z,0.38
2022-10-21T04:25:51.472Z,0.25
2022-10-21T04:26:53.188Z,0.30
2022-10-21T04:27:54.915Z,0.20
2022-10-21T04:28:56.630Z,0.30
2022-10-21T04:29:58.425Z,0.40
2022-10-21T04:31:00.315Z,0.40
2022-10-21T04:32:02.033Z,0.38
2022-10-21T04:33:04.111Z,0.22
2022-10-21T04:34:05.944Z,0.22
2022-10-21T04:35:07.660Z,0.40
2022-10-21T04:36:09.443Z,0.10
2022-10-21T04:37:12.178Z,0.20
2022-10-21T04:38:14.100Z,0.28
2022-10-21T04:39:15.853Z,0.28
2022-10-21T04:40:17.798Z,0.20
2022-10-21T04:41:19.768Z,0.40
2022-10-21T04:42:21.594Z,0.28
2022-10-21T04:43:23.490Z,0.20
2022-10-21T04:44:25.297Z,0.40
2022-10-21T04:45:27.055Z,0.30
2022-10-21T04:46:28.828Z,0.20
2022-10-21T04:47:30.501Z,0.32
2022-10-21T04:48:32.309Z,0.60
2022-10-21T04:49:34.305Z,0.20
2022-10-21T04:50:36.093Z,0.20
2022-10-21T04:51:37.826Z,0.28
2022-10-21T04:52:39.816Z,0.30
2022-10-21T04:53:41.772Z,0.20
2022-10-21T04:54:43.499Z,0.17
2022-10-21T04:55:45.583Z,0.20
2022-10-21T04:56:47.443Z,0.32
2022-10-21T04:57:49.208Z,0.40
2022-10-21T04:58:50.944Z,0.40
2022-10-21T04:59:52.812Z,0.30
2022-10-21T05:00:55.048Z,0.60
2022-10-21T05:01:56.946Z,0.43
2022-10-21T05:02:59.616Z,0.45
2022-10-21T05:04:01.368Z,0.30
2022-10-21T05:05:03.721Z,0.30
2022-10-21T05:06:05.656Z,0.30
2022-10-21T05:07:08.043Z,0.15
2022-10-21T05:08:11.599Z,0.30
2022-10-21T05:09:13.834Z,0.38
2022-10-21T05:10:15.723Z,0.30
2022-10-21T05:11:17.503Z,0.20
2022-10-21T05:12:19.399Z,0.32
2022-10-21T05:13:21.183Z,0.20
2022-10-21T05:14:23.011Z,0.45
2022-10-21T05:15:25.908Z,0.20
2022-10-21T05:16:27.731Z,0.30
2022-10-21T05:17:29.485Z,0.30
2022-10-21T05:18:31.559Z,0.28
2022-10-21T05:19:33.355Z,0.40
2022-10-21T05:20:35.058Z,0.30
2022-10-21T05:22:43.580Z,0.40
2022-10-21T05:23:45.281Z,0.30
2022-10-21T05:24:47.074Z,0.30
2022-10-21T05:25:50.666Z,0.40
2022-10-21T05:26:52.424Z,0.30
2022-10-21T05:27:54.216Z,0.43
2022-10-21T05:28:56.247Z,0.30
2022-10-21T05:29:58.487Z,0.30
2022-10-21T05:31:00.404Z,0.60
2022-10-21T05:32:02.261Z,0.38
2022-10-21T05:33:04.273Z,0.40
2022-10-21T05:34:05.987Z,0.30
2022-10-21T05:35:08.278Z,0.45
2022-10-21T05:36:09.976Z,0.30
2022-10-21T05:37:11.765Z,0.50
2022-10-21T05:38:13.446Z,0.60
2022-10-21T05:39:15.786Z,0.50
2022-10-21T05:40:18.597Z,0.45
2022-10-21T05:41:21.032Z,0.52
2022-10-21T05:42:22.903Z,0.52
2022-10-21T05:43:25.166Z,0.30
2022-10-21T05:44:26.937Z,0.50
2022-10-21T05:45:28.678Z,0.55
2022-10-21T05:46:30.486Z,0.40
2022-10-21T05:47:32.297Z,0.30
2022-10-21T05:48:34.444Z,0.50
2022-10-21T05:49:36.326Z,0.60
2022-10-21T05:50:38.411Z,0.32
2022-10-21T05:51:40.232Z,0.50
2022-10-21T05:52:42.247Z,0.68
2022-10-21T05:53:43.995Z,0.32
2022-10-21T05:54:45.746Z,0.30
2022-10-21T05:56:01.630Z,0.40
2022-10-21T05:57:03.666Z,0.50
2022-10-21T05:58:05.798Z,0.52
2022-10-21T05:59:10.079Z,0.30
2022-10-21T06:00:13.288Z,0.40
2022-10-21T06:01:15.203Z,0.50
2022-10-21T06:02:17.485Z,0.43
2022-10-21T06:03:19.331Z,0.38
2022-10-21T06:04:21.148Z,0.30
2022-10-21T06:05:23.002Z,0.40
2022-10-21T06:06:24.711Z,0.40
2022-10-21T06:07:26.500Z,0.50
2022-10-21T06:08:30.362Z,0.40
2022-10-21T06:09:32.242Z,0.50
2022-10-21T06:10:33.962Z,0.43
2022-10-21T06:11:35.876Z,0.40
2022-10-21T06:12:38.186Z,0.55
2022-10-21T06:13:40.887Z,0.60
2022-10-21T06:14:42.589Z,0.60
2022-10-21T06:15:48.749Z,0.57
2022-10-21T06:16:52.773Z,0.60
2022-10-21T06:17:54.477Z,0.70
2022-10-21T06:18:56.242Z,0.80
2022-10-21T06:19:57.992Z,1.08
2022-10-21T06:20:59.801Z,0.90
2022-10-21T06:22:01.614Z,0.82
2022-10-21T06:23:03.382Z,0.90
2022-10-21T06:24:05.664Z,0.85
2022-10-21T06:25:07.800Z,0.82
2022-10-21T06:26:12.872Z,0.77
2022-10-21T06:27:14.831Z,1.05
2022-10-21T06:28:16.701Z,0.80
2022-10-21T06:29:18.700Z,0.80
2022-10-21T06:30:20.535Z,0.70
2022-10-21T06:31:22.319Z,0.80
2022-10-21T06:32:24.427Z,0.50
2022-10-21T06:33:27.346Z,0.60
2022-10-21T06:34:29.297Z,0.50
2022-10-21T06:35:31.106Z,0.57
2022-10-21T06:36:32.961Z,0.50
2022-10-21T06:37:34.729Z,0.57
2022-10-21T06:38:37.205Z,0.65
2022-10-21T06:39:38.992Z,0.50
2022-10-21T06:40:41.293Z,0.50
2022-10-21T06:41:43.131Z,0.43
2022-10-21T06:42:50.958Z,0.22
2022-10-21T06:43:52.702Z,0.43
2022-10-21T06:44:56.622Z,0.47
2022-10-21T06:46:02.828Z,0.60
2022-10-21T06:47:04.648Z,0.50
2022-10-21T06:48:07.132Z,0.47
2022-10-21T06:49:08.912Z,0.50
2022-10-21T06:50:10.667Z,0.50
2022-10-21T06:51:19.496Z,0.40
2022-10-21T06:52:21.429Z,0.57
2022-10-21T06:53:23.170Z,0.43
2022-10-21T06:54:26.544Z,0.55
2022-10-21T06:55:28.458Z,0.30
2022-10-21T06:56:31.912Z,0.38
2022-10-21T06:57:34.222Z,0.40
2022-10-21T06:58:37.691Z,0.40
2022-10-21T06:59:39.992Z,0.38
2022-10-21T07:00:41.700Z,0.25
2022-10-21T07:02:00.559Z,0.38
2022-10-21T07:03:02.791Z,0.20
2022-10-21T07:04:06.121Z,0.32
2022-10-21T07:05:08.861Z,0.32
2022-10-21T07:06:10.847Z,0.38
2022-10-21T07:07:12.921Z,0.32
2022-10-21T07:08:14.649Z,0.20
2022-10-21T07:09:16.927Z,0.40
2022-10-21T07:10:18.880Z,0.38
2022-10-21T07:11:20.691Z,0.40
2022-10-21T07:12:22.481Z,0.32
2022-10-21T07:13:25.952Z,0.30
2022-10-21T07:14:28.152Z,0.30
2022-10-21T07:15:30.089Z,0.32
2022-10-21T07:16:34.699Z,0.40
2022-10-21T07:17:36.516Z,0.47
2022-10-21T07:18:41.874Z,0.32
2022-10-21T07:19:44.582Z,0.40
2022-10-21T07:20:46.460Z,0.30
2022-10-21T07:21:48.499Z,0.45
2022-10-21T07:22:50.406Z,0.40
2022-10-21T07:23:54.077Z,0.50
2022-10-21T07:24:57.280Z,0.40
2022-10-21T07:25:59.188Z,0.47
2022-10-21T07:27:00.898Z,0.50
2022-10-21T07:28:02.622Z,0.68
2022-10-21T07:29:05.224Z,0.50
2022-10-21T07:30:07.406Z,0.40
2022-10-21T07:31:09.193Z,0.45
2022-10-21T07:32:10.907Z,0.60
2022-10-21T07:33:12.956Z,0.40
2022-10-21T07:34:15.140Z,0.40
2022-10-21T07:35:16.940Z,0.30
2022-10-21T07:36:27.450Z,0.40
2022-10-21T07:37:29.250Z,0.50
2022-10-21T07:38:30.968Z,0.50
2022-10-21T07:39:34.493Z,0.30
2022-10-21T07:40:41.127Z,0.40
2022-10-21T07:41:49.083Z,0.40
2022-10-21T07:42:50.776Z,0.47
2022-10-21T07:43:54.047Z,0.40
2022-10-21T07:44:59.939Z,0.40
2022-10-21T07:46:04.495Z,0.30
2022-10-21T07:47:08.725Z,0.50
2022-10-21T07:48:10.476Z,0.50
2022-10-21T07:49:13.621Z,0.40
2022-10-21T07:50:16.441Z,0.35
2022-10-21T07:51:21.415Z,0.40
2022-10-21T07:52:23.274Z,0.43
2022-10-21T07:53:26.432Z,0.30
2022-10-21T07:54:28.189Z,0.30
2022-10-21T07:55:30.278Z,0.40
2022-10-21T07:56:38.770Z,0.30
2022-10-21T07:57:41.647Z,0.30
2022-10-21T07:58:44.730Z,0.38
2022-10-21T07:59:46.411Z,0.40
2022-10-21T08:00:48.152Z,0.20
2022-10-21T08:01:50.979Z,0.20
2022-10-21T08:02:56.755Z,0.30
2022-10-21T08:03:58.705Z,0.38
2022-10-21T08:05:00.565Z,0.30
2022-10-21T08:06:02.489Z,0.30
2022-10-21T08:07:04.243Z,0.30
2022-10-21T08:08:06.069Z,0.20
2022-10-21T08:09:08.035Z,0.20
2022-10-21T08:10:09.996Z,0.10
2022-10-21T08:11:12.201Z,0.20
2022-10-21T08:12:15.334Z,0.25
2022-10-21T08:13:18.119Z,0.20
2022-10-21T08:14:19.913Z,0.20
2022-10-21T08:15:21.709Z,0.20
2022-10-21T08:16:24.500Z,0.30
2022-10-21T08:17:26.192Z,0.20
2022-10-21T08:18:28.142Z,0.30
2022-10-21T08:19:30.340Z,0.30
2022-10-21T08:20:32.055Z,0.17
2022-10-21T08:21:34.775Z,0.22
2022-10-21T08:22:36.619Z,0.30
2022-10-21T08:23:39.016Z,0.40
2022-10-21T08:24:42.361Z,0.40
2022-10-21T08:25:49.122Z,0.28
2022-10-21T08:26:51.973Z,0.40
2022-10-21T08:27:53.695Z,0.20
2022-10-21T08:28:55.680Z,0.15
2022-10-21T08:29:57.457Z,0.20
2022-10-21T08:31:20.783Z,0.20
2022-10-21T08:32:22.586Z,0.35
2022-10-21T08:33:24.316Z,0.20
2022-10-21T08:34:26.065Z,0.10
2022-10-21T08:35:28.616Z,0.17
2022-10-21T08:36:30.466Z,0.10
2022-10-21T08:37:32.324Z,0.20
2022-10-21T08:38:34.632Z,0.20
2022-10-21T08:39:36.381Z,0.30
2022-10-21T08:40:46.423Z,0.10
2022-10-21T08:41:53.657Z,0.28
2022-10-21T08:42:55.445Z,0.10
2022-10-21T08:44:10.202Z,0.20
2022-10-21T08:45:35.606Z,0.20
2022-10-21T08:46:47.395Z,0.10
2022-10-21T08:47:57.210Z,0.20
2022-10-21T08:49:27.266Z,0.20
2022-10-21T08:50:43.118Z,0.10
2022-10-21T08:52:00.110Z,0.20
2022-10-21T08:53:11.148Z,0.25
2022-10-21T08:54:21.119Z,0.10
2022-10-21T08:55:33.244Z,0.47
2022-10-21T08:56:35.143Z,0.30
2022-10-21T08:57:37.086Z,0.10
2022-10-21T08:58:39.574Z,0.20
2022-10-21T08:59:44.429Z,0.32
2022-10-21T09:00:55.103Z,0.17
2022-10-21T09:02:05.738Z,0.20
2022-10-21T09:03:24.973Z,0.20
2022-10-21T09:04:49.186Z,0.10
2022-10-21T09:06:21.609Z,0.20
2022-10-21T09:07:44.390Z,0.10
2022-10-21T09:09:10.812Z,0.10
2022-10-21T09:10:38.045Z,0.10
2022-10-21T09:12:05.051Z,0.10
2022-10-21T09:13:13.976Z,0.20
2022-10-21T09:14:37.149Z,0.10
2022-10-21T09:15:52.740Z,0.10
2022-10-21T09:17:07.834Z,0.20
2022-10-21T09:18:28.220Z,0.10
2022-10-21T09:20:01.119Z,0.20
2022-10-21T09:21:09.701Z,0.10
2022-10-21T09:22:35.401Z,0.20
2022-10-21T09:23:47.641Z,0.20
2022-10-21T09:24:59.956Z,0.10
2022-10-21T09:26:07.196Z,0.10
2022-10-21T09:27:10.657Z,0.20
2022-10-21T09:28:14.973Z,0.00
2022-10-21T09:29:28.706Z,0.10
2022-10-21T09:30:30.430Z,0.20
2022-10-21T09:31:32.237Z,0.10
2022-10-21T09:32:40.352Z,0.10
2022-10-21T09:33:46.444Z,0.15
2022-10-21T09:34:57.189Z,0.30
2022-10-21T09:36:36.346Z,0.10
2022-10-21T09:37:43.480Z,0.30
2022-10-21T09:38:54.639Z,0.10
2022-10-21T09:40:15.853Z,0.20
2022-10-21T09:42:45.876Z,0.20
2022-10-21T09:43:45.803Z,0.10
2022-10-21T09:44:47.552Z,0.10
2022-10-21T09:45:49.361Z,0.10
2022-10-21T09:46:53.769Z,0.20
2022-10-21T09:48:01.534Z,0.20
2022-10-21T09:50:28.140Z,0.20
2022-10-21T09:51:34.627Z,0.10
2022-10-21T09:52:38.517Z,0.10
2022-10-21T09:53:53.955Z,0.10
2022-10-21T09:54:56.572Z,0.30
2022-10-21T09:56:06.675Z,0.10
2022-10-21T09:57:14.694Z,0.17
2022-10-21T09:58:28.266Z,0.10
2022-10-21T09:59:33.301Z,0.20
2022-10-21T10:00:50.154Z,0.20
2022-10-21T10:01:54.144Z,0.17
2022-10-21T10:02:55.921Z,0.20
2022-10-21T10:03:58.380Z,0.20
2022-10-21T10:05:00.299Z,0.10
2022-10-21T10:06:03.496Z,0.20
2022-10-21T10:07:26.761Z,0.20
2022-10-21T10:08:43.619Z,0.20
2022-10-21T10:09:46.967Z,0.20
2022-10-21T10:10:48.758Z,0.28
2022-10-21T10:11:58.136Z,0.20
2022-10-21T10:13:01.022Z,0.20
2022-10-21T10:14:26.816Z,0.10
2022-10-21T10:15:37.008Z,0.20
2022-10-21T10:16:38.785Z,0.17
2022-10-21T10:17:40.479Z,0.20
2022-10-21T10:18:43.406Z,0.30
2022-10-21T10:20:05.297Z,0.22
2022-10-21T10:21:12.276Z,0.10
2022-10-21T10:22:16.332Z,0.10
2022-10-21T10:23:19.430Z,0.20
2022-10-21T10:24:22.095Z,0.10
2022-10-21T10:25:26.471Z,0.10
2022-10-21T10:26:31.291Z,0.15
2022-10-21T10:27:33.159Z,0.20
2022-10-21T10:28:35.137Z,0.10
2022-10-21T10:29:37.488Z,0.17
2022-10-21T10:30:41.772Z,0.20
2022-10-21T10:31:50.821Z,0.10
2022-10-21T10:32:56.083Z,0.20
2022-10-21T10:34:05.967Z,0.10
2022-10-21T10:35:17.686Z,0.20
2022-10-21T10:36:29.807Z,0.20
2022-10-21T10:37:37.107Z,0.10
2022-10-21T10:38:52.247Z,0.20
2022-10-21T10:39:58.055Z,0.30
2022-10-21T10:41:06.953Z,0.10
2022-10-21T10:42:08.988Z,0.17
2022-10-21T10:43:16.374Z,0.20
2022-10-21T10:44:31.081Z,0.20
2022-10-21T10:45:33.008Z,0.30
2022-10-21T10:46:36.747Z,0.22
2022-10-21T10:47:43.714Z,0.20
2022-10-21T10:48:48.897Z,0.20
2022-10-21T10:49:51.376Z,0.10
2022-10-21T10:50:53.207Z,0.30
2022-10-21T10:52:06.855Z,0.20
2022-10-21T10:53:32.007Z,0.20
2022-10-21T10:54:34.599Z,0.30
2022-10-21T10:55:44.394Z,0.30
2022-10-21T10:56:57.119Z,0.30
2022-10-21T10:58:19.122Z,0.10
2022-10-21T10:59:24.448Z,0.20
2022-10-21T11:00:27.368Z,0.20
2022-10-21T11:01:37.188Z,0.40
2022-10-21T11:02:42.194Z,0.38
2022-10-21T11:03:54.944Z,0.38
2022-10-21T11:05:15.576Z,0.30
2022-10-21T11:06:21.800Z,0.10
2022-10-21T11:07:30.314Z,0.20
2022-10-21T11:08:43.902Z,0.30
2022-10-21T11:09:46.518Z,0.10
2022-10-21T11:10:53.632Z,0.20
2022-10-21T11:11:56.459Z,0.30
2022-10-21T11:13:00.738Z,0.30
2022-10-21T11:14:02.980Z,0.25
2022-10-21T11:15:13.865Z,0.40
2022-10-21T11:16:45.215Z,0.20
2022-10-21T11:18:29.192Z,0.30
2022-10-21T11:19:36.731Z,0.30
2022-10-21T11:20:50.851Z,0.30
2022-10-21T11:21:55.797Z,0.30
2022-10-21T11:23:15.836Z,0.40
2022-10-21T11:24:32.640Z,0.30
2022-10-21T11:25:43.488Z,0.30
2022-10-21T11:27:01.059Z,0.43
2022-10-21T11:28:30.904Z,0.30
2022-10-21T11:30:12.003Z,0.25
2022-10-21T11:31:22.789Z,0.40
2022-10-21T11:32:42.653Z,0.28
2022-10-21T11:33:44.681Z,0.20
2022-10-21T11:34:55.359Z,0.40
2022-10-21T11:36:13.203Z,0.30
2022-10-21T11:37:29.944Z,0.32
2022-10-21T11:38:47.628Z,0.50
2022-10-21T11:40:04.018Z,0.40
2022-10-21T11:41:13.594Z,0.50
2022-10-21T11:42:42.103Z,0.47
2022-10-21T11:43:56.640Z,0.30
2022-10-21T11:45:16.907Z,0.40
2022-10-21T11:46:28.649Z,0.43
2022-10-21T11:48:05.591Z,0.57
2022-10-21T11:49:26.670Z,0.50
2022-10-21T11:50:51.109Z,0.50
2022-10-21T11:52:11.279Z,0.35
2022-10-21T11:53:50.208Z,0.40
2022-10-21T11:55:39.342Z,0.70
2022-10-21T11:56:56.171Z,0.60
2022-10-21T11:58:33.040Z,0.40
2022-10-21T11:59:55.236Z,0.50
2022-10-21T12:01:05.444Z,0.40
2022-10-21T12:02:32.670Z,0.70
2022-10-21T12:03:47.559Z,0.57
2022-10-21T12:04:55.793Z,0.40
2022-10-21T12:06:03.682Z,0.60
2022-10-21T12:07:23.982Z,0.50
2022-10-21T12:08:32.139Z,0.40
2022-10-21T12:09:43.892Z,0.30
2022-10-21T12:11:04.208Z,0.20
2022-10-21T12:12:11.899Z,0.30
2022-10-21T12:13:28.244Z,0.38
2022-10-21T12:14:37.676Z,0.20
2022-10-21T12:15:47.775Z,0.30
2022-10-21T12:16:51.479Z,0.22
2022-10-21T12:17:54.147Z,0.30
2022-10-21T12:18:59.352Z,0.40
2022-10-21T12:20:07.330Z,0.20
2022-10-21T12:21:16.683Z,0.20
2022-10-21T12:22:18.680Z,0.38
2022-10-21T12:23:23.864Z,0.40
2022-10-21T12:24:32.235Z,0.40
2022-10-21T12:25:42.683Z,0.30
2022-10-21T12:26:56.399Z,0.50
2022-10-21T12:28:26.717Z,0.25
2022-10-21T12:29:47.967Z,0.30
2022-10-21T12:30:59.530Z,0.45
2022-10-21T12:32:11.252Z,0.17
2022-10-21T12:33:31.154Z,0.20
2022-10-21T12:34:33.590Z,0.10
2022-10-21T12:35:54.071Z,0.40
2022-10-21T12:36:56.023Z,0.30
2022-10-21T12:38:05.416Z,0.32
2022-10-21T12:39:16.280Z,0.25
2022-10-21T12:40:39.066Z,0.15
2022-10-21T12:41:41.199Z,0.30
2022-10-21T12:42:48.315Z,0.20
2022-10-21T12:43:59.190Z,0.30
2022-10-21T12:45:01.049Z,0.30
2022-10-21T12:46:09.155Z,0.38
2022-10-21T12:47:34.775Z,0.20
2022-10-21T12:48:43.870Z,0.30
2022-10-21T12:49:46.092Z,0.10
2022-10-21T12:51:00.903Z,0.20
2022-10-21T12:52:02.565Z,0.25
2022-10-21T12:53:34.680Z,0.30
2022-10-21T12:54:49.911Z,0.20
2022-10-21T12:55:55.797Z,0.10
2022-10-21T12:57:03.546Z,0.20
2022-10-21T12:58:07.051Z,0.30
2022-10-21T12:59:25.358Z,0.30
2022-10-21T13:00:27.032Z,0.32
2022-10-21T13:01:42.889Z,0.20
2022-10-21T13:02:59.627Z,0.20
2022-10-21T13:04:01.765Z,0.20
2022-10-21T13:05:03.680Z,0.20
2022-10-21T13:06:06.665Z,0.10
2022-10-21T13:07:19.301Z,0.20
2022-10-21T13:08:22.787Z,0.10
2022-10-21T13:09:56.678Z,0.45
2022-10-21T13:11:04.644Z,0.20
2022-10-21T13:12:09.116Z,0.10
2022-10-21T13:13:37.943Z,0.30
2022-10-21T13:14:49.884Z,0.10
2022-10-21T13:15:51.604Z,0.20
2022-10-21T13:16:53.437Z,0.30
2022-10-21T13:17:56.952Z,0.30
2022-10-21T13:19:24.658Z,0.30
2022-10-21T13:20:26.479Z,0.10
2022-10-21T13:21:36.713Z,0.10
2022-10-21T13:22:41.024Z,0.10
2022-10-21T13:23:44.251Z,0.22
2022-10-21T13:24:47.091Z,0.20
2022-10-21T13:26:05.295Z,0.10
2022-10-21T13:27:29.937Z,0.13
2022-10-21T13:28:31.822Z,0.20
2022-10-21T13:29:48.683Z,0.10
2022-10-21T13:30:50.350Z,0.20
2022-10-21T13:32:21.940Z,0.20
2022-10-21T13:33:27.113Z,0.30
2022-10-21T13:34:30.236Z,0.20
2022-10-21T13:35:36.964Z,0.10
2022-10-21T13:36:43.228Z,0.38
2022-10-21T13:38:30.507Z,0.30
2022-10-21T13:39:34.737Z,0.22
2022-10-21T13:40:45.616Z,0.10
2022-10-21T13:41:47.773Z,0.20
2022-10-21T13:42:57.828Z,0.30
2022-10-21T13:44:02.544Z,0.40
2022-10-21T13:45:18.364Z,0.17
2022-10-21T13:46:26.783Z,0.15
2022-10-21T13:47:31.546Z,0.40
2022-10-21T13:48:39.254Z,0.15
2022-10-21T13:49:41.815Z,0.17
2022-10-21T13:50:49.971Z,0.17
2022-10-21T13:51:53.253Z,0.10
2022-10-21T13:52:55.619Z,0.30
2022-10-21T13:54:11.546Z,0.40
2022-10-21T13:55:24.457Z,0.20
2022-10-21T13:56:28.600Z,0.10
2022-10-21T13:57:36.477Z,0.15
2022-10-21T13:58:39.647Z,0.30
2022-10-21T13:59:41.586Z,0.30
2022-10-21T14:00:43.453Z,0.20
2022-10-21T14:01:48.473Z,0.30
2022-10-21T14:02:53.355Z,0.10
2022-10-21T14:04:11.072Z,0.20
2022-10-21T14:05:35.228Z,0.20
2022-10-21T14:06:42.564Z,0.20
2022-10-21T14:07:45.117Z,0.17
2022-10-21T14:08:47.952Z,0.50
2022-10-21T14:09:54.383Z,0.30
2022-10-21T14:11:02.259Z,0.10
2022-10-21T14:12:09.886Z,0.17
2022-10-21T14:13:12.224Z,0.20
2022-10-21T14:14:17.302Z,0.30
2022-10-21T14:15:23.684Z,0.28
2022-10-21T14:16:31.394Z,0.20
2022-10-21T14:17:34.758Z,0.10
2022-10-21T14:18:41.950Z,0.10
2022-10-21T14:19:47.752Z,0.20
2022-10-21T14:20:49.680Z,0.20
2022-10-21T14:21:53.991Z,0.20
2022-10-21T14:22:56.245Z,0.20
2022-10-21T14:23:58.239Z,0.30
2022-10-21T14:25:04.245Z,0.30
2022-10-21T14:26:09.796Z,0.32
2022-10-21T14:27:27.887Z,0.20
2022-10-21T14:28:30.389Z,0.30
2022-10-21T14:29:35.280Z,0.30
2022-10-21T14:30:37.188Z,0.20
2022-10-21T14:31:42.912Z,0.28
2022-10-21T14:32:48.290Z,0.30
2022-10-21T14:33:50.131Z,0.20
2022-10-21T14:35:01.140Z,0.32
2022-10-21T14:36:26.102Z,0.20
2022-10-21T14:37:35.195Z,0.40
2022-10-21T14:38:52.740Z,0.20
2022-10-21T14:40:10.349Z,0.10
2022-10-21T14:41:17.178Z,0.10
2022-10-21T14:42:24.967Z,0.20
2022-10-21T14:43:34.168Z,0.17
2022-10-21T14:44:36.208Z,0.30
2022-10-21T14:45:45.831Z,0.30
2022-10-21T14:46:50.458Z,0.10
2022-10-21T14:47:56.249Z,0.10
2022-10-21T14:49:04.795Z,0.20
2022-10-21T14:50:07.287Z,0.22
2022-10-21T14:51:15.235Z,0.30
2022-10-21T14:52:22.964Z,0.20
2022-10-21T14:53:24.743Z,0.25